createdAt,value
2023-04-20T00:01:12.240Z,2.13
2023-04-20T00:03:39.844Z,2.00
2023-04-20T00:06:08.569Z,1.88
2023-04-20T00:08:35.724Z,2.20
2023-04-20T00:11:02.743Z,2.10
2023-04-20T00:13:29.645Z,2.33
2023-04-20T00:15:56.664Z,1.67
2023-04-20T00:18:23.778Z,2.50
2023-04-20T00:20:51.246Z,2.30
2023-04-20T00:23:18.356Z,2.25
2023-04-20T00:25:45.373Z,2.10
2023-04-20T00:28:12.675Z,2.15
2023-04-20T00:30:39.593Z,2.80
2023-04-20T00:33:06.924Z,2.10
2023-04-20T00:35:34.982Z,2.25
2023-04-20T00:38:02.279Z,2.60
2023-04-20T00:40:29.268Z,2.30
2023-04-20T00:42:56.294Z,2.40
2023-04-20T00:45:23.639Z,3.05
2023-04-20T00:47:51.799Z,2.97
2023-04-20T00:50:19.103Z,2.50
2023-04-20T00:52:46.983Z,2.50
2023-04-20T00:55:14.403Z,2.95
2023-04-20T00:57:41.785Z,3.35
2023-04-20T01:00:10.642Z,2.88
2023-04-20T01:02:37.944Z,2.58
2023-04-20T01:05:05.624Z,2.60
2023-04-20T01:07:32.843Z,3.45
2023-04-20T01:10:00.163Z,2.33
2023-04-20T01:12:27.088Z,2.78
2023-04-20T01:14:54.147Z,3.45
2023-04-20T01:17:22.418Z,2.97
2023-04-20T01:19:49.464Z,2.58
2023-04-20T01:22:23.930Z,2.60
2023-04-20T01:24:50.901Z,2.55
2023-04-20T01:27:17.904Z,2.80
2023-04-20T01:29:46.208Z,2.97
2023-04-20T01:32:13.817Z,3.05
2023-04-20T01:34:41.382Z,3.10
2023-04-20T01:37:08.551Z,2.67
2023-04-20T01:39:38.597Z,2.90
2023-04-20T01:42:07.021Z,2.80
2023-04-20T01:44:34.064Z,2.40
2023-04-20T01:47:01.321Z,2.72
2023-04-20T01:49:28.309Z,2.67
2023-04-20T01:51:55.818Z,2.78
2023-04-20T01:54:23.062Z,2.30
2023-04-20T01:56:49.958Z,2.38
2023-04-20T01:59:19.912Z,2.60
2023-04-20T02:01:46.942Z,2.83
2023-04-20T02:04:13.867Z,3.65
2023-04-20T02:06:41.231Z,2.70
2023-04-20T02:09:09.518Z,2.90
2023-04-20T02:11:36.588Z,3.13
2023-04-20T02:14:03.848Z,2.90
2023-04-20T02:16:31.913Z,3.15
2023-04-20T02:18:59.352Z,2.95
2023-04-20T02:21:26.723Z,3.10
2023-04-20T02:23:53.830Z,3.25
2023-04-20T02:26:20.974Z,3.17
2023-04-20T02:28:48.274Z,3.10
2023-04-20T02:31:15.721Z,3.17
2023-04-20T02:33:43.130Z,3.30
2023-04-20T02:36:10.362Z,2.70
2023-04-20T02:38:38.255Z,2.88
2023-04-20T02:41:05.437Z,2.95
2023-04-20T02:43:34.291Z,2.80
2023-04-20T02:46:01.421Z,2.80
2023-04-20T02:48:28.446Z,3.10
2023-04-20T02:50:56.874Z,3.00
2023-04-20T02:53:23.729Z,3.53
2023-04-20T02:55:50.896Z,3.20
2023-04-20T02:58:17.833Z,3.53
2023-04-20T03:00:44.787Z,3.17
2023-04-20T03:03:11.993Z,2.65
2023-04-20T03:05:39.279Z,3.35
2023-04-20T03:08:07.063Z,3.10
2023-04-20T03:10:34.222Z,2.97
2023-04-20T03:13:01.284Z,2.92
2023-04-20T03:15:28.401Z,3.70
2023-04-20T03:17:55.571Z,3.05
2023-04-20T03:20:22.681Z,4.18
2023-04-20T03:22:52.491Z,4.05
2023-04-20T03:25:19.833Z,3.22
2023-04-20T03:27:47.767Z,3.63
2023-04-20T03:30:15.681Z,3.42
2023-04-20T03:32:42.931Z,3.80
2023-04-20T03:35:10.337Z,4.57
2023-04-20T03:37:39.794Z,3.97
2023-04-20T03:40:08.794Z,4.15
2023-04-20T03:42:37.636Z,4.90
2023-04-20T03:45:06.950Z,5.30
2023-04-20T03:47:34.107Z,6.93
2023-04-20T03:50:01.615Z,6.90
2023-04-20T03:52:29.143Z,6.20
2023-04-20T03:54:56.164Z,4.30
2023-04-20T03:57:23.442Z,4.07
2023-04-20T03:59:50.296Z,3.83
2023-04-20T04:02:17.523Z,4.38
2023-04-20T04:04:45.522Z,4.10
2023-04-20T04:07:12.754Z,3.72
2023-04-20T04:09:40.169Z,6.35
2023-04-20T04:12:07.533Z,5.03
2023-04-20T04:14:36.051Z,5.43
2023-04-20T04:17:03.157Z,4.25
2023-04-20T04:19:32.868Z,4.72
2023-04-20T04:22:00.153Z,4.78
2023-04-20T04:24:27.160Z,4.05
2023-04-20T04:26:56.361Z,3.90
2023-04-20T04:29:26.180Z,5.25
2023-04-20T04:31:54.729Z,4.22
2023-04-20T04:34:24.045Z,4.43
2023-04-20T04:36:51.016Z,3.90
2023-04-20T04:39:18.260Z,4.63
2023-04-20T04:41:46.293Z,4.80
2023-04-20T04:44:13.220Z,4.55
2023-04-20T04:46:40.904Z,4.03
2023-04-20T04:49:08.106Z,3.47
2023-04-20T04:51:36.017Z,3.88
2023-04-20T04:54:06.509Z,3.70
2023-04-20T04:56:33.605Z,4.32
2023-04-20T04:59:01.041Z,5.85
2023-04-20T05:01:27.949Z,5.40
2023-04-20T05:03:55.223Z,4.20
2023-04-20T05:06:22.627Z,4.47
2023-04-20T05:08:49.595Z,4.95
2023-04-20T05:11:16.498Z,3.95
2023-04-20T05:13:43.486Z,4.75
2023-04-20T05:16:10.904Z,4.43
2023-04-20T05:18:38.011Z,4.38
2023-04-20T05:21:05.177Z,4.20
2023-04-20T05:23:32.248Z,4.20
2023-04-20T05:25:59.259Z,4.50
2023-04-20T05:28:27.003Z,4.93
2023-04-20T05:30:55.700Z,4.60
2023-04-20T05:33:23.054Z,4.40
2023-04-20T05:35:51.776Z,5.20
2023-04-20T05:38:18.692Z,4.78
2023-04-20T05:40:46.377Z,4.22
2023-04-20T05:43:13.397Z,4.70
2023-04-20T05:45:40.673Z,4.50
2023-04-20T05:48:07.947Z,3.60
2023-04-20T05:50:35.352Z,3.92
2023-04-20T05:53:02.741Z,4.60
2023-04-20T05:55:29.736Z,4.18
2023-04-20T05:57:56.814Z,3.92
2023-04-20T06:00:26.095Z,4.70
2023-04-20T06:02:55.345Z,3.78
2023-04-20T06:05:22.557Z,4.75
2023-04-20T06:07:50.012Z,4.15
2023-04-20T06:10:16.877Z,3.97
2023-04-20T06:12:43.934Z,4.20
2023-04-20T06:15:11.559Z,4.10
2023-04-20T06:17:41.152Z,4.65
2023-04-20T06:20:11.558Z,4.35
2023-04-20T06:22:47.424Z,4.88
2023-04-20T06:25:15.924Z,3.90
2023-04-20T06:27:45.914Z,4.47
2023-04-20T06:30:13.933Z,5.15
2023-04-20T06:32:41.336Z,4.20
2023-04-20T06:35:09.085Z,4.45
2023-04-20T06:37:36.734Z,4.88
2023-04-20T06:40:10.955Z,4.93
2023-04-20T06:42:38.052Z,4.70
2023-04-20T06:45:07.459Z,5.30
2023-04-20T06:47:34.960Z,4.72
2023-04-20T06:50:07.528Z,5.13
2023-04-20T06:52:46.422Z,4.97
2023-04-20T06:55:16.362Z,5.63
2023-04-20T06:57:43.984Z,4.90
2023-04-20T07:00:12.012Z,5.72
2023-04-20T07:02:50.899Z,5.85
2023-04-20T07:05:19.418Z,5.05
2023-04-20T07:07:46.500Z,5.70
2023-04-20T07:10:15.363Z,5.03
2023-04-20T07:12:43.940Z,6.03
2023-04-20T07:15:11.885Z,5.22
2023-04-20T07:17:39.657Z,6.03
2023-04-20T07:20:08.758Z,5.35
2023-04-20T07:22:37.130Z,5.00
2023-04-20T07:25:09.515Z,5.95
2023-04-20T07:27:41.759Z,4.95
2023-04-20T07:30:10.964Z,5.78
2023-04-20T07:32:39.543Z,6.28
2023-04-20T07:35:07.701Z,5.10
2023-04-20T07:37:35.214Z,5.13
2023-04-20T07:40:06.106Z,5.85
2023-04-20T07:42:35.068Z,5.10
2023-04-20T07:45:02.130Z,6.28
2023-04-20T07:47:29.196Z,6.05
2023-04-20T07:49:57.748Z,5.68
2023-04-20T07:52:26.138Z,5.68
2023-04-20T07:54:59.879Z,5.57
2023-04-20T07:57:28.547Z,5.70
2023-04-20T07:59:55.968Z,5.72
2023-04-20T08:02:23.226Z,6.03
2023-04-20T08:04:50.699Z,5.32
2023-04-20T08:07:20.977Z,5.80
2023-04-20T08:09:47.873Z,6.40
2023-04-20T08:12:15.260Z,6.18
2023-04-20T08:14:42.153Z,5.70
2023-04-20T08:17:09.091Z,5.60
2023-04-20T08:19:36.328Z,5.85
2023-04-20T08:22:06.145Z,6.38
2023-04-20T08:24:33.165Z,5.50
2023-04-20T08:27:00.684Z,5.45
2023-04-20T08:29:27.945Z,5.63
2023-04-20T08:31:55.008Z,6.03
2023-04-20T08:34:22.069Z,5.70
2023-04-20T08:36:49.439Z,4.88
2023-04-20T08:39:21.825Z,6.00
2023-04-20T08:41:53.884Z,5.20
2023-04-20T08:44:22.055Z,5.75
2023-04-20T08:46:49.804Z,5.07
2023-04-20T08:49:19.099Z,4.82
2023-04-20T08:51:49.787Z,5.00
2023-04-20T08:54:17.464Z,4.63
2023-04-20T08:56:46.966Z,4.65
2023-04-20T08:59:15.649Z,4.70
2023-04-20T09:01:44.139Z,3.90
2023-04-20T09:04:25.588Z,3.92
2023-04-20T09:06:56.204Z,4.50
2023-04-20T09:09:25.367Z,5.10
2023-04-20T09:12:07.964Z,4.43
2023-04-20T09:14:47.118Z,4.55
2023-04-20T09:17:16.609Z,5.65
2023-04-20T09:19:53.543Z,5.40
2023-04-20T09:22:33.786Z,5.13
2023-04-20T09:25:12.304Z,4.75
2023-04-20T09:27:39.984Z,4.47
2023-04-20T09:30:07.882Z,4.93
2023-04-20T09:32:35.782Z,4.63
2023-04-20T09:35:02.858Z,4.57
2023-04-20T09:37:29.792Z,4.40
2023-04-20T09:40:01.114Z,4.90
2023-04-20T09:42:29.059Z,4.30
2023-04-20T09:44:57.952Z,4.50
2023-04-20T09:47:27.068Z,3.58
2023-04-20T09:49:56.363Z,3.90
2023-04-20T09:52:25.983Z,4.30
2023-04-20T09:54:53.274Z,4.43
2023-04-20T09:57:21.010Z,3.58
2023-04-20T09:59:48.315Z,4.15
2023-04-20T10:02:15.629Z,4.43
2023-04-20T10:04:57.013Z,3.55
2023-04-20T10:07:34.290Z,4.05
2023-04-20T10:10:06.581Z,4.20
2023-04-20T10:12:37.158Z,3.83
2023-04-20T10:15:04.723Z,4.53
2023-04-20T10:17:33.098Z,4.20
2023-04-20T10:20:00.442Z,3.75
2023-04-20T10:22:33.521Z,4.13
2023-04-20T10:25:02.607Z,3.78
2023-04-20T10:27:32.345Z,4.47
2023-04-20T10:30:10.719Z,5.25
2023-04-20T10:32:37.827Z,4.35
2023-04-20T10:35:11.334Z,4.50
2023-04-20T10:37:50.036Z,4.97
2023-04-20T10:40:26.942Z,5.05
2023-04-20T10:42:54.076Z,4.40
2023-04-20T10:45:22.085Z,4.13
2023-04-20T10:47:49.416Z,4.47
2023-04-20T10:50:18.623Z,4.85
2023-04-20T10:52:46.135Z,4.32
2023-04-20T10:55:21.608Z,4.57
2023-04-20T10:57:49.776Z,4.68
2023-04-20T11:00:23.517Z,4.88
2023-04-20T11:02:59.360Z,5.75
2023-04-20T11:05:27.921Z,5.00
2023-04-20T11:07:58.909Z,5.35
2023-04-20T11:10:42.878Z,4.60
2023-04-20T11:13:23.427Z,4.82
2023-04-20T11:15:50.468Z,4.63
2023-04-20T11:18:19.074Z,4.25
2023-04-20T11:20:59.224Z,4.30
2023-04-20T11:23:37.779Z,4.75
2023-04-20T11:26:04.693Z,4.60
2023-04-20T11:28:36.175Z,5.00
2023-04-20T11:31:06.620Z,4.82
2023-04-20T11:33:34.426Z,4.47
2023-04-20T11:36:02.990Z,4.32
2023-04-20T11:38:35.228Z,4.07
2023-04-20T11:41:05.291Z,3.97
2023-04-20T11:43:32.663Z,3.58
2023-04-20T11:46:03.012Z,4.10
2023-04-20T11:48:33.604Z,3.70
2023-04-20T11:51:00.729Z,3.95
2023-04-20T11:53:27.901Z,4.28
2023-04-20T11:55:54.804Z,4.63
2023-04-20T11:58:21.981Z,5.13
2023-04-20T12:00:49.759Z,5.72
2023-04-20T12:03:17.185Z,5.90
2023-04-20T12:05:44.475Z,5.13
2023-04-20T12:08:11.576Z,5.45
2023-04-20T12:10:39.998Z,5.03
2023-04-20T12:13:06.978Z,5.15
2023-04-20T12:15:33.955Z,5.00
2023-04-20T12:18:01.010Z,5.30
2023-04-20T12:20:28.434Z,4.82
2023-04-20T12:22:57.169Z,4.25
2023-04-20T12:25:25.894Z,5.43
2023-04-20T12:27:53.394Z,4.35
2023-04-20T12:30:20.737Z,5.25
2023-04-20T12:32:48.043Z,4.80
2023-04-20T12:35:15.091Z,4.68
2023-04-20T12:37:42.121Z,5.03
2023-04-20T12:40:10.224Z,5.22
2023-04-20T12:42:37.381Z,4.45
2023-04-20T12:45:06.509Z,4.20
2023-04-20T12:47:33.508Z,4.22
2023-04-20T12:50:00.726Z,4.35
2023-04-20T12:52:28.286Z,4.05
2023-04-20T12:54:55.704Z,5.00
2023-04-20T12:57:22.591Z,4.55
2023-04-20T12:59:49.602Z,4.90
2023-04-20T13:02:17.955Z,4.50
2023-04-20T13:04:46.882Z,5.13
2023-04-20T13:07:13.852Z,4.45
2023-04-20T13:09:40.805Z,4.32
2023-04-20T13:12:08.238Z,5.22
2023-04-20T13:14:35.227Z,4.93
2023-04-20T13:17:02.317Z,5.07
2023-04-20T13:19:31.515Z,5.00
2023-04-20T13:21:59.938Z,4.75
2023-04-20T13:24:29.854Z,6.10
2023-04-20T13:26:57.297Z,4.63
2023-04-20T13:29:26.128Z,4.57
2023-04-20T13:31:53.156Z,3.95
2023-04-20T13:34:21.070Z,4.90
2023-04-20T13:36:48.278Z,4.80
2023-04-20T13:39:17.920Z,5.30
2023-04-20T13:41:45.033Z,5.22
2023-04-20T13:44:16.446Z,4.90
2023-04-20T13:46:46.352Z,5.35
2023-04-20T13:49:13.829Z,6.25
2023-04-20T13:51:40.900Z,5.80
2023-04-20T13:54:08.193Z,5.60
2023-04-20T13:56:35.640Z,5.70
2023-04-20T13:59:05.612Z,5.40
2023-04-20T14:01:34.592Z,5.05
2023-04-20T14:04:01.863Z,4.90
2023-04-20T14:06:32.079Z,4.50
2023-04-20T14:08:58.906Z,4.50
2023-04-20T14:11:26.006Z,4.47
2023-04-20T14:13:53.212Z,5.40
2023-04-20T14:16:24.856Z,4.53
2023-04-20T14:18:51.890Z,4.60
2023-04-20T14:21:19.006Z,5.20
2023-04-20T14:23:46.411Z,3.85
2023-04-20T14:26:14.456Z,4.15
2023-04-20T14:28:42.045Z,3.55
2023-04-20T14:31:09.047Z,3.45
2023-04-20T14:33:36.511Z,3.55
2023-04-20T14:36:03.592Z,3.67
2023-04-20T14:38:33.795Z,3.33
2023-04-20T14:41:01.286Z,3.20
2023-04-20T14:43:32.412Z,3.50
2023-04-20T14:46:00.937Z,3.80
2023-04-20T14:48:29.748Z,3.67
2023-04-20T14:50:57.332Z,3.78
2023-04-20T14:53:24.618Z,3.63
2023-04-20T14:55:51.739Z,4.05
2023-04-20T14:58:20.705Z,3.78
2023-04-20T15:00:49.130Z,4.05
2023-04-20T15:03:17.552Z,3.55
2023-04-20T15:05:45.100Z,4.00
2023-04-20T15:08:12.411Z,4.53
2023-04-20T15:10:39.695Z,4.38
2023-04-20T15:13:07.228Z,3.92
2023-04-20T15:15:47.520Z,3.83
2023-04-20T15:18:17.500Z,3.90
2023-04-20T15:20:46.751Z,4.72
2023-04-20T15:23:13.711Z,4.72
2023-04-20T15:25:40.761Z,4.93
2023-04-20T15:28:11.219Z,5.10
2023-04-20T15:30:38.373Z,5.15
2023-04-20T15:33:05.829Z,5.30
2023-04-20T15:35:35.840Z,5.55
2023-04-20T15:38:03.953Z,6.55
2023-04-20T15:40:31.323Z,5.40
2023-04-20T15:42:58.990Z,4.30
2023-04-20T15:45:26.007Z,4.00
2023-04-20T15:47:54.527Z,3.78
2023-04-20T15:50:21.745Z,3.92
2023-04-20T15:52:50.919Z,3.95
2023-04-20T15:55:18.010Z,4.00
2023-04-20T15:57:45.201Z,4.03
2023-04-20T16:00:13.710Z,4.45
2023-04-20T16:02:41.138Z,4.35
2023-04-20T16:05:09.508Z,4.88
2023-04-20T16:07:36.604Z,5.10
2023-04-20T16:10:06.775Z,4.95
2023-04-20T16:12:35.028Z,5.60
2023-04-20T16:15:03.978Z,5.40
2023-04-20T16:17:31.089Z,5.07
2023-04-20T16:19:58.148Z,5.63
2023-04-20T16:22:25.766Z,6.15
2023-04-20T16:24:52.788Z,5.65
2023-04-20T16:27:19.910Z,5.88
2023-04-20T16:29:47.184Z,5.40
2023-04-20T16:32:14.431Z,6.07
2023-04-20T16:34:41.955Z,6.10
2023-04-20T16:37:10.209Z,5.63
2023-04-20T16:39:37.754Z,5.25
2023-04-20T16:42:05.272Z,5.55
2023-04-20T16:44:32.354Z,6.05
2023-04-20T16:47:02.371Z,6.18
2023-04-20T16:49:29.460Z,5.45
2023-04-20T16:51:57.476Z,5.93
2023-04-20T16:54:27.846Z,5.78
2023-04-20T16:56:54.824Z,5.82
2023-04-20T16:59:21.882Z,6.70
2023-04-20T17:01:52.397Z,6.15
2023-04-20T17:04:19.722Z,5.90
2023-04-20T17:06:47.835Z,6.85
2023-04-20T17:09:14.816Z,6.57
2023-04-20T17:11:41.963Z,6.53
2023-04-20T17:14:10.318Z,6.80
2023-04-20T17:16:37.798Z,6.70
2023-04-20T17:19:05.142Z,6.40
2023-04-20T17:21:32.229Z,6.28
2023-04-20T17:23:59.428Z,6.80
2023-04-20T17:26:26.471Z,6.22
2023-04-20T17:28:54.259Z,6.72
2023-04-20T17:31:21.994Z,6.60
2023-04-20T17:33:48.947Z,6.38
2023-04-20T17:36:15.953Z,6.97
2023-04-20T17:38:43.481Z,6.53
2023-04-20T17:41:10.980Z,6.45
2023-04-20T17:43:40.738Z,6.45
2023-04-20T17:46:08.240Z,6.28
2023-04-20T17:48:35.436Z,6.53
2023-04-20T17:51:02.719Z,5.95
2023-04-20T17:53:29.710Z,6.30
2023-04-20T17:55:56.920Z,6.20
2023-04-20T17:58:25.274Z,6.13
2023-04-20T18:01:20.108Z,6.32
2023-04-20T18:03:48.520Z,5.90
2023-04-20T18:06:15.969Z,5.43
2023-04-20T18:08:43.120Z,6.55
2023-04-20T18:11:10.111Z,5.82
2023-04-20T18:13:37.783Z,5.68
2023-04-20T18:16:07.449Z,5.82
2023-04-20T18:18:38.196Z,6.13
2023-04-20T18:21:05.448Z,5.47
2023-04-20T18:23:33.136Z,6.07
2023-04-20T18:25:59.912Z,6.07
2023-04-20T18:28:38.962Z,5.78
2023-04-20T18:31:06.066Z,5.90
2023-04-20T18:33:33.075Z,6.25
2023-04-20T18:36:01.883Z,5.90
2023-04-20T18:38:28.856Z,6.60
2023-04-20T18:42:19.173Z,5.68
2023-04-20T18:44:46.746Z,5.65
2023-04-20T18:47:15.650Z,5.25
2023-04-20T18:49:43.478Z,5.70
2023-04-20T18:52:11.531Z,5.22
2023-04-20T18:54:38.937Z,5.57
2023-04-20T18:57:07.476Z,5.60
2023-04-20T18:59:34.583Z,5.10
2023-04-20T19:02:01.547Z,5.88
2023-04-20T19:04:29.597Z,6.00
2023-04-20T19:06:57.045Z,5.10
2023-04-20T19:09:24.119Z,5.30
2023-04-20T19:11:51.501Z,5.70
2023-04-20T19:14:18.706Z,5.82
2023-04-20T19:16:45.808Z,5.70
2023-04-20T19:19:13.214Z,5.13
2023-04-20T19:21:41.169Z,5.72
2023-04-20T19:24:08.288Z,6.20
2023-04-20T19:26:35.642Z,4.72
2023-04-20T19:29:03.143Z,5.43
2023-04-20T19:31:37.017Z,5.93
2023-04-20T19:34:05.109Z,5.65
2023-04-20T19:36:32.573Z,5.53
2023-04-20T19:38:59.853Z,5.05
2023-04-20T19:41:28.539Z,6.45
2023-04-20T19:43:56.224Z,6.47
2023-04-20T19:46:23.664Z,6.40
2023-04-20T19:48:50.728Z,6.88
2023-04-20T19:51:19.356Z,6.20
2023-04-20T19:53:46.569Z,6.63
2023-04-20T19:56:13.613Z,7.00
2023-04-20T19:58:41.109Z,6.97
2023-04-20T20:01:08.261Z,7.10
2023-04-20T20:03:35.659Z,7.55
2023-04-20T20:06:04.102Z,7.65
2023-04-20T20:08:32.353Z,7.28
2023-04-20T20:10:59.270Z,7.60
2023-04-20T20:13:26.763Z,8.55
2023-04-20T20:15:54.067Z,8.48
2023-04-20T20:18:22.519Z,8.65
2023-04-20T20:20:51.466Z,9.68
2023-04-20T20:23:20.529Z,8.55
2023-04-20T20:25:47.880Z,8.50
2023-04-20T20:28:14.924Z,9.00
2023-04-20T20:30:45.341Z,10.43
2023-04-20T20:33:12.901Z,9.70
2023-04-20T20:35:40.285Z,10.77
2023-04-20T20:38:11.004Z,10.60
2023-04-20T20:40:40.225Z,9.32
2023-04-20T20:43:07.741Z,10.75
2023-04-20T20:45:34.693Z,12.77
2023-04-20T20:48:01.722Z,11.48
2023-04-20T20:50:29.046Z,11.82
2023-04-20T20:52:55.985Z,11.07
2023-04-20T20:55:22.962Z,11.82
2023-04-20T20:57:50.025Z,12.20
2023-04-20T21:00:17.281Z,12.15
2023-04-20T21:02:45.560Z,12.07
2023-04-20T21:05:12.857Z,12.25
2023-04-20T21:07:40.813Z,11.45
2023-04-20T21:10:08.740Z,12.35
2023-04-20T21:12:36.113Z,12.68
2023-04-20T21:15:04.206Z,11.88
2023-04-20T21:17:33.513Z,11.63
2023-04-20T21:20:01.603Z,12.07
2023-04-20T21:22:31.076Z,11.23
2023-04-20T21:24:58.454Z,11.18
2023-04-20T21:27:25.497Z,13.27
2023-04-20T21:29:52.965Z,11.30
2023-04-20T21:32:19.979Z,12.95
2023-04-20T21:34:47.084Z,12.20
2023-04-20T21:37:13.972Z,11.18
2023-04-20T21:39:40.941Z,11.27
2023-04-20T21:42:08.103Z,11.10
2023-04-20T21:44:35.760Z,11.85
2023-04-20T21:47:02.825Z,12.77
2023-04-20T21:49:30.035Z,13.75
2023-04-20T21:51:57.021Z,11.55
2023-04-20T21:54:23.920Z,11.43
2023-04-20T21:56:51.293Z,13.48
2023-04-20T21:59:18.764Z,13.80
2023-04-20T22:01:45.995Z,11.25
2023-04-20T22:04:14.233Z,12.65
2023-04-20T22:06:41.526Z,13.07
2023-04-20T22:09:08.902Z,12.80
2023-04-20T22:11:37.614Z,11.93
2023-04-20T22:14:05.866Z,13.82
2023-04-20T22:16:36.064Z,14.32
2023-04-20T22:19:04.256Z,13.48
2023-04-20T22:21:33.282Z,14.27
2023-04-20T22:24:00.588Z,13.70
2023-04-20T22:26:27.798Z,12.60
2023-04-20T22:28:54.793Z,13.35
2023-04-20T22:31:21.807Z,14.40
2023-04-20T22:33:49.084Z,14.63
2023-04-20T22:36:16.815Z,14.60
2023-04-20T22:38:43.964Z,16.25
2023-04-20T22:41:11.150Z,14.50
2023-04-20T22:43:38.384Z,15.45
2023-04-20T22:46:05.491Z,16.52
2023-04-20T22:48:32.633Z,19.00
2023-04-20T22:51:00.927Z,17.80
2023-04-20T22:53:30.118Z,14.95
2023-04-20T22:56:07.782Z,18.13
2023-04-20T22:58:35.063Z,16.73
2023-04-20T23:01:02.749Z,20.95
2023-04-20T23:03:30.143Z,18.05
2023-04-20T23:05:59.081Z,19.42
2023-04-20T23:08:28.346Z,18.10
2023-04-20T23:10:55.512Z,18.80
2023-04-20T23:13:27.033Z,18.20
2023-04-20T23:15:54.237Z,18.27
2023-04-20T23:18:21.452Z,15.70
2023-04-20T23:20:48.524Z,19.00
2023-04-20T23:23:15.599Z,23.83
2023-04-20T23:25:42.658Z,22.95
2023-04-20T23:28:09.852Z,21.17
2023-04-20T23:30:36.854Z,22.42
2023-04-20T23:33:04.433Z,24.08
2023-04-20T23:35:31.478Z,19.63
2023-04-20T23:37:59.007Z,22.13
2023-04-20T23:40:26.195Z,21.05
2023-04-20T23:42:55.286Z,23.45
2023-04-20T23:45:23.317Z,30.02
2023-04-20T23:47:50.508Z,24.45
2023-04-20T23:50:17.516Z,20.58
2023-04-20T23:52:44.423Z,21.95
2023-04-20T23:55:11.762Z,20.30
2023-04-20T23:57:38.885Z,18.23
